createdAt,value
2023-04-08T00:01:56.409Z,2.17
2023-04-08T00:04:22.937Z,2.08
2023-04-08T00:06:49.443Z,2.12
2023-04-08T00:09:15.840Z,2.22
2023-04-08T00:11:42.184Z,2.43
2023-04-08T00:14:08.557Z,3.01
2023-04-08T00:16:35.257Z,2.87
2023-04-08T00:19:01.592Z,2.80
2023-04-08T00:21:27.924Z,2.88
2023-04-08T00:23:54.295Z,3.10
2023-04-08T00:26:20.693Z,3.23
2023-04-08T00:28:47.124Z,3.09
2023-04-08T00:31:13.523Z,3.25
2023-04-08T00:33:39.933Z,2.90
2023-04-08T00:36:06.359Z,2.91
2023-04-08T00:38:32.716Z,3.31
2023-04-08T00:40:59.041Z,3.84
2023-04-08T00:43:25.377Z,3.01
2023-04-08T00:45:51.801Z,2.67
2023-04-08T00:48:18.221Z,2.58
2023-04-08T00:50:44.560Z,2.87
2023-04-08T00:53:10.922Z,2.50
2023-04-08T00:55:37.306Z,2.76
2023-04-08T00:58:03.647Z,2.68
2023-04-08T01:00:30.039Z,2.57
2023-04-08T01:02:56.558Z,2.47
2023-04-08T01:05:22.979Z,2.39
2023-04-08T01:07:49.379Z,2.49
2023-04-08T01:10:15.728Z,2.29
2023-04-08T01:12:42.074Z,2.18
2023-04-08T01:15:08.466Z,2.49
2023-04-08T01:17:34.911Z,2.09
2023-04-08T01:20:01.282Z,2.26
2023-04-08T01:22:27.661Z,2.13
2023-04-08T01:24:54.002Z,2.37
2023-04-08T01:27:20.352Z,2.30
2023-04-08T01:29:46.777Z,2.41
2023-04-08T01:32:13.113Z,2.35
2023-04-08T01:34:39.491Z,2.68
2023-04-08T01:37:05.886Z,2.62
2023-04-08T01:39:32.231Z,2.80
2023-04-08T01:41:58.569Z,2.80
2023-04-08T01:44:24.941Z,2.71
2023-04-08T01:46:51.366Z,2.93
2023-04-08T01:49:17.786Z,3.07
2023-04-08T01:51:44.124Z,2.89
2023-04-08T01:54:10.470Z,2.92
2023-04-08T01:56:37.961Z,2.67
2023-04-08T01:59:04.354Z,2.64
2023-04-08T02:01:30.980Z,2.53
2023-04-08T02:03:57.669Z,2.38
2023-04-08T02:06:24.231Z,2.41
2023-04-08T02:08:50.809Z,2.50
2023-04-08T02:11:17.356Z,2.73
2023-04-08T02:13:43.763Z,2.65
2023-04-08T02:16:10.235Z,2.68
2023-04-08T02:18:36.612Z,2.65
2023-04-08T02:21:02.960Z,2.54
2023-04-08T02:23:29.303Z,2.60
2023-04-08T02:25:55.697Z,2.69
2023-04-08T02:28:22.077Z,2.61
2023-04-08T02:30:48.468Z,2.58
2023-04-08T02:33:14.895Z,2.38
2023-04-08T02:35:41.407Z,2.50
2023-04-08T02:38:07.860Z,2.75
2023-04-08T02:40:34.216Z,2.71
2023-04-08T02:43:00.598Z,2.73
2023-04-08T02:45:27.014Z,2.53
2023-04-08T02:47:53.409Z,2.70
2023-04-08T02:50:19.804Z,2.61
2023-04-08T02:52:46.185Z,2.66
2023-04-08T02:55:12.532Z,2.65
2023-04-08T02:57:38.870Z,2.72
2023-04-08T03:00:05.264Z,2.51
2023-04-08T03:02:31.786Z,2.54
2023-04-08T03:04:58.261Z,2.75
2023-04-08T03:07:24.622Z,2.80
2023-04-08T03:09:51.024Z,2.75
2023-04-08T03:12:17.370Z,2.64
2023-04-08T03:14:43.752Z,2.98
2023-04-08T03:17:10.141Z,2.71
2023-04-08T03:19:36.482Z,2.69
2023-04-08T03:22:02.849Z,2.75
2023-04-08T03:24:29.233Z,2.71
2023-04-08T03:26:55.629Z,2.66
2023-04-08T03:29:21.999Z,2.68
2023-04-08T03:31:48.540Z,2.80
2023-04-08T03:34:14.916Z,2.69
2023-04-08T03:36:41.241Z,2.85
2023-04-08T03:39:07.592Z,2.67
2023-04-08T03:41:33.920Z,2.85
2023-04-08T03:44:00.300Z,2.99
2023-04-08T03:46:26.791Z,2.97
2023-04-08T03:48:53.217Z,3.07
2023-04-08T03:51:19.585Z,2.92
2023-04-08T03:53:45.990Z,3.22
2023-04-08T03:56:12.385Z,3.15
2023-04-08T03:58:38.722Z,3.19
2023-04-08T04:01:05.096Z,3.04
2023-04-08T04:03:31.614Z,3.07
2023-04-08T04:05:58.024Z,2.96
2023-04-08T04:08:24.414Z,2.98
2023-04-08T04:10:50.808Z,3.10
2023-04-08T04:13:17.206Z,3.15
2023-04-08T04:15:43.598Z,3.21
2023-04-08T04:18:10.060Z,3.13
2023-04-08T04:20:36.517Z,3.15
2023-04-08T04:23:02.886Z,3.35
2023-04-08T04:25:29.350Z,3.39
2023-04-08T04:27:55.698Z,3.32
2023-04-08T04:30:22.037Z,3.33
2023-04-08T04:32:48.453Z,3.30
2023-04-08T04:35:14.984Z,3.66
2023-04-08T04:37:41.397Z,3.65
2023-04-08T04:40:07.746Z,3.63
2023-04-08T04:42:34.084Z,3.55
2023-04-08T04:45:00.486Z,3.43
2023-04-08T04:47:26.855Z,3.33
2023-04-08T04:49:53.255Z,3.60
2023-04-08T04:52:19.650Z,3.62
2023-04-08T04:54:46.026Z,3.35
2023-04-08T04:57:12.415Z,3.67
2023-04-08T04:59:38.799Z,3.62
2023-04-08T05:02:05.255Z,3.64
2023-04-08T05:04:31.714Z,3.83
2023-04-08T05:06:58.086Z,3.78
2023-04-08T05:09:24.432Z,3.83
2023-04-08T05:11:50.808Z,3.81
2023-04-08T05:14:17.194Z,3.70
2023-04-08T05:16:43.537Z,3.71
2023-04-08T05:19:09.907Z,3.70
2023-04-08T05:21:36.301Z,3.69
2023-04-08T05:24:02.797Z,3.47
2023-04-08T05:26:29.185Z,3.81
2023-04-08T05:28:55.573Z,3.61
2023-04-08T05:31:22.035Z,3.81
2023-04-08T05:33:48.403Z,3.72
2023-04-08T05:36:14.773Z,3.83
2023-04-08T05:38:41.107Z,4.11
2023-04-08T05:41:07.451Z,4.28
2023-04-08T05:43:33.836Z,4.09
2023-04-08T05:46:00.199Z,4.43
2023-04-08T05:48:26.564Z,4.12
2023-04-08T05:50:52.934Z,4.21
2023-04-08T05:53:19.319Z,4.10
2023-04-08T05:55:45.707Z,4.30
2023-04-08T05:58:12.085Z,4.28
2023-04-08T06:00:38.466Z,4.62
2023-04-08T06:03:05.003Z,4.17
2023-04-08T06:05:31.653Z,4.40
2023-04-08T06:07:58.007Z,4.51
2023-04-08T06:10:24.373Z,4.92
2023-04-08T06:12:50.751Z,4.92
2023-04-08T06:15:17.087Z,5.40
2023-04-08T06:17:43.514Z,5.26
2023-04-08T06:20:10.090Z,5.26
2023-04-08T06:22:36.460Z,5.05
2023-04-08T06:25:02.856Z,4.75
2023-04-08T06:27:29.240Z,4.99
2023-04-08T06:29:55.590Z,5.79
2023-04-08T06:32:21.998Z,5.55
2023-04-08T06:34:48.355Z,5.22
2023-04-08T06:37:14.729Z,5.52
2023-04-08T06:39:41.081Z,6.06
2023-04-08T06:42:07.455Z,5.68
2023-04-08T06:44:33.829Z,5.73
2023-04-08T06:47:00.246Z,5.89
2023-04-08T06:49:26.587Z,5.62
2023-04-08T06:51:52.948Z,5.35
2023-04-08T06:54:19.310Z,5.57
2023-04-08T06:56:45.685Z,5.80
2023-04-08T06:59:12.033Z,5.99
2023-04-08T07:01:38.509Z,5.76
2023-04-08T07:04:04.981Z,5.80
2023-04-08T07:06:31.359Z,6.25
2023-04-08T07:08:57.695Z,5.90
2023-04-08T07:11:24.107Z,5.76
2023-04-08T07:13:50.442Z,6.02
2023-04-08T07:16:16.867Z,6.23
2023-04-08T07:18:43.217Z,5.55
2023-04-08T07:21:09.603Z,5.29
2023-04-08T07:23:35.990Z,4.50
2023-04-08T07:26:02.332Z,4.77
2023-04-08T07:28:28.685Z,4.63
2023-04-08T07:30:55.053Z,4.71
2023-04-08T07:33:21.465Z,4.61
2023-04-08T07:35:47.816Z,4.79
2023-04-08T07:38:14.185Z,4.49
2023-04-08T07:40:40.609Z,4.60
2023-04-08T07:43:06.954Z,4.61
2023-04-08T07:45:33.287Z,4.39
2023-04-08T07:47:59.700Z,4.58
2023-04-08T07:50:26.095Z,4.46
2023-04-08T07:52:52.432Z,4.38
2023-04-08T07:55:18.801Z,4.48
2023-04-08T07:57:45.464Z,4.43
2023-04-08T08:00:11.944Z,4.51
2023-04-08T08:02:38.338Z,4.32
2023-04-08T08:05:04.810Z,4.48
2023-04-08T08:07:31.232Z,4.37
2023-04-08T08:09:57.637Z,4.68
2023-04-08T08:12:24.047Z,4.50
2023-04-08T08:14:50.428Z,4.91
2023-04-08T08:17:16.809Z,4.81
2023-04-08T08:19:43.193Z,5.37
2023-04-08T08:22:09.534Z,4.74
2023-04-08T08:24:35.864Z,5.16
2023-04-08T08:27:02.208Z,5.78
2023-04-08T08:29:28.559Z,5.21
2023-04-08T08:31:54.905Z,5.38
2023-04-08T08:34:21.275Z,5.16
2023-04-08T08:36:47.675Z,5.30
2023-04-08T08:39:14.067Z,5.10
2023-04-08T08:41:40.410Z,4.86
2023-04-08T08:44:06.808Z,5.31
2023-04-08T08:46:33.260Z,5.26
2023-04-08T08:48:59.665Z,4.93
2023-04-08T08:51:26.050Z,4.77
2023-04-08T08:53:52.569Z,4.31
2023-04-08T08:56:19.297Z,4.28
2023-04-08T08:58:45.784Z,4.88
2023-04-08T09:01:12.188Z,4.53
2023-04-08T09:03:38.939Z,4.58
2023-04-08T09:06:05.589Z,4.62
2023-04-08T09:08:31.961Z,4.54
2023-04-08T09:10:58.404Z,4.29
2023-04-08T09:13:24.819Z,4.29
2023-04-08T09:15:51.228Z,4.97
2023-04-08T09:18:17.875Z,4.45
2023-04-08T09:20:44.266Z,4.18
2023-04-08T09:23:10.695Z,4.30
2023-04-08T09:25:37.099Z,4.68
2023-04-08T09:28:03.447Z,4.69
2023-04-08T09:30:29.843Z,4.28
2023-04-08T09:32:56.242Z,4.17
2023-04-08T09:35:22.665Z,4.27
2023-04-08T09:37:49.060Z,3.73
2023-04-08T09:40:15.410Z,3.94
2023-04-08T09:42:41.803Z,3.61
2023-04-08T09:45:08.214Z,3.82
2023-04-08T09:47:34.604Z,3.78
2023-04-08T09:50:00.993Z,4.39
2023-04-08T09:52:27.350Z,4.57
2023-04-08T09:54:53.767Z,4.30
2023-04-08T09:57:20.119Z,4.81
2023-04-08T09:59:46.450Z,4.64
2023-04-08T10:02:12.878Z,4.31
2023-04-08T10:04:39.278Z,4.50
2023-04-08T10:07:05.616Z,4.23
2023-04-08T10:09:31.958Z,4.26
2023-04-08T10:11:58.335Z,4.51
2023-04-08T10:14:24.728Z,4.31
2023-04-08T10:16:51.130Z,3.87
2023-04-08T10:19:17.832Z,3.74
2023-04-08T10:21:44.185Z,3.89
2023-04-08T10:24:10.517Z,3.78
2023-04-08T10:26:36.872Z,3.80
2023-04-08T10:29:03.201Z,3.86
2023-04-08T10:31:29.587Z,4.05
2023-04-08T10:33:55.993Z,3.72
2023-04-08T10:36:22.394Z,3.89
2023-04-08T10:38:48.733Z,4.12
2023-04-08T10:41:15.071Z,4.09
2023-04-08T10:43:41.406Z,3.89
2023-04-08T10:46:07.787Z,3.69
2023-04-08T10:48:34.169Z,3.79
2023-04-08T10:51:00.560Z,3.85
2023-04-08T10:53:26.944Z,3.77
2023-04-08T10:55:53.283Z,3.92
2023-04-08T10:58:19.613Z,3.62
2023-04-08T11:00:45.947Z,4.00
2023-04-08T11:03:14.373Z,3.96
2023-04-08T11:05:41.971Z,4.28
2023-04-08T11:08:08.507Z,4.06
2023-04-08T11:10:34.842Z,4.06
2023-04-08T11:13:01.193Z,3.98
2023-04-08T11:15:27.583Z,4.15
2023-04-08T11:17:54.042Z,4.14
2023-04-08T11:20:20.459Z,3.84
2023-04-08T11:22:46.847Z,3.85
2023-04-08T11:25:13.249Z,4.19
2023-04-08T11:27:39.617Z,4.14
2023-04-08T11:30:05.996Z,3.96
2023-04-08T11:32:32.449Z,3.68
2023-04-08T11:34:58.795Z,3.93
2023-04-08T11:37:25.131Z,4.00
2023-04-08T11:39:51.506Z,3.87
2023-04-08T11:42:17.889Z,3.85
2023-04-08T11:44:44.273Z,3.57
2023-04-08T11:47:10.630Z,3.94
2023-04-08T11:49:36.966Z,3.77
2023-04-08T11:52:03.350Z,3.60
2023-04-08T11:54:29.719Z,3.43
2023-04-08T11:56:56.115Z,3.17
2023-04-08T11:59:22.500Z,3.22
2023-04-08T12:01:48.889Z,3.20
2023-04-08T12:04:15.431Z,3.35
2023-04-08T12:06:41.901Z,3.42
2023-04-08T12:09:08.242Z,3.12
2023-04-08T12:11:34.588Z,3.04
2023-04-08T12:14:00.930Z,3.07
2023-04-08T12:16:27.410Z,2.88
2023-04-08T12:18:53.852Z,2.83
2023-04-08T12:21:20.244Z,2.90
2023-04-08T12:23:46.628Z,3.06
2023-04-08T12:26:13.015Z,2.99
2023-04-08T12:28:39.405Z,3.01
2023-04-08T12:31:05.794Z,2.86
2023-04-08T12:33:32.215Z,2.86
2023-04-08T12:35:58.669Z,2.26
2023-04-08T12:38:25.130Z,2.03
2023-04-08T12:40:51.465Z,2.05
2023-04-08T12:43:17.869Z,2.13
2023-04-08T12:45:44.211Z,2.16
2023-04-08T12:48:10.645Z,2.15
2023-04-08T12:50:37.072Z,2.03
2023-04-08T12:53:03.403Z,2.32
2023-04-08T12:55:29.747Z,2.30
2023-04-08T12:57:56.128Z,2.21
2023-04-08T13:00:22.477Z,2.29
2023-04-08T13:02:48.935Z,2.32
2023-04-08T13:05:15.584Z,2.26
2023-04-08T13:07:43.360Z,2.82
2023-04-08T13:10:09.888Z,2.97
2023-04-08T13:12:36.280Z,4.38
2023-04-08T13:15:02.616Z,6.84
2023-04-08T13:17:28.969Z,6.45
2023-04-08T13:19:55.344Z,8.55
2023-04-08T13:22:21.694Z,6.61
2023-04-08T13:24:48.045Z,4.71
2023-04-08T13:27:14.433Z,2.86
2023-04-08T13:29:40.803Z,7.57
2023-04-08T13:32:07.205Z,12.17
2023-04-08T13:34:33.575Z,20.38
2023-04-08T13:36:59.957Z,22.84
2023-04-08T13:39:26.298Z,5.44
2023-04-08T13:41:52.640Z,4.59
2023-04-08T13:44:19.011Z,4.08
2023-04-08T13:46:45.386Z,7.91
2023-04-08T13:49:11.734Z,11.76
2023-04-08T13:51:38.065Z,7.09
2023-04-08T13:54:04.422Z,14.69
2023-04-08T13:56:30.833Z,25.04
2023-04-08T13:58:57.805Z,14.53
2023-04-08T14:01:24.332Z,20.71
2023-04-08T14:03:50.764Z,11.15
2023-04-08T14:06:17.147Z,7.33
2023-04-08T14:08:43.490Z,3.46
2023-04-08T14:11:09.844Z,15.60
2023-04-08T14:13:36.222Z,5.77
2023-04-08T14:16:02.614Z,24.81
2023-04-08T14:18:28.965Z,8.12
2023-04-08T14:20:55.351Z,20.06
2023-04-08T14:23:21.703Z,11.44
2023-04-08T14:25:48.034Z,16.22
2023-04-08T14:28:14.377Z,2.19
2023-04-08T14:30:40.732Z,21.19
2023-04-08T14:33:07.216Z,4.66
2023-04-08T14:35:33.929Z,6.09
2023-04-08T14:38:00.674Z,22.98
2023-04-08T14:40:27.069Z,4.18
2023-04-08T14:42:53.409Z,19.34
2023-04-08T14:45:19.800Z,9.63
2023-04-08T14:47:46.264Z,8.88
2023-04-08T14:50:12.657Z,3.27
2023-04-08T14:52:39.006Z,2.85
2023-04-08T14:55:05.382Z,1.72
2023-04-08T14:57:31.727Z,2.18
2023-04-08T14:59:58.062Z,2.29
2023-04-08T15:02:24.505Z,1.77
2023-04-08T15:04:50.975Z,1.83
2023-04-08T15:07:17.322Z,1.74
2023-04-08T15:09:43.653Z,1.92
2023-04-08T15:12:10.457Z,2.17
2023-04-08T15:14:37.624Z,1.93
2023-04-08T15:17:03.999Z,6.10
2023-04-08T15:19:30.385Z,4.85
2023-04-08T15:21:56.722Z,8.50
2023-04-08T15:24:23.058Z,2.88
2023-04-08T15:26:49.439Z,6.51
2023-04-08T15:29:15.828Z,4.95
2023-04-08T15:31:42.285Z,10.75
2023-04-08T15:34:08.703Z,4.65
2023-04-08T15:36:35.072Z,5.76
2023-04-08T15:39:01.457Z,7.28
2023-04-08T15:41:27.845Z,12.66
2023-04-08T15:43:54.206Z,8.97
2023-04-08T15:46:20.626Z,2.08
2023-04-08T15:48:47.081Z,7.60
2023-04-08T15:51:13.420Z,3.99
2023-04-08T15:53:39.765Z,6.60
2023-04-08T15:56:06.099Z,2.72
2023-04-08T15:58:32.426Z,2.60
2023-04-08T16:00:58.808Z,2.76
2023-04-08T16:03:25.444Z,2.73
2023-04-08T16:05:51.882Z,4.76
2023-04-08T16:08:18.223Z,3.31
2023-04-08T16:10:44.602Z,2.08
2023-04-08T16:13:11.010Z,2.01
2023-04-08T16:15:37.364Z,1.95
2023-04-08T16:18:03.736Z,2.11
2023-04-08T16:20:30.225Z,1.88
2023-04-08T16:22:56.618Z,1.99
2023-04-08T16:25:23.019Z,2.33
2023-04-08T16:27:49.378Z,3.45
2023-04-08T16:30:15.717Z,3.88
2023-04-08T16:32:42.135Z,2.57
2023-04-08T16:35:08.545Z,3.73
2023-04-08T16:37:34.898Z,2.01
2023-04-08T16:40:01.239Z,2.07
2023-04-08T16:42:27.662Z,2.15
2023-04-08T16:44:54.005Z,2.11
2023-04-08T16:47:20.406Z,2.12
2023-04-08T16:49:46.775Z,2.33
2023-04-08T16:52:13.155Z,2.41
2023-04-08T16:54:39.497Z,5.47
2023-04-08T16:57:05.849Z,3.65
2023-04-08T16:59:32.243Z,2.56
2023-04-08T17:01:58.681Z,2.39
2023-04-08T17:04:25.188Z,2.28
2023-04-08T17:06:51.608Z,2.03
2023-04-08T17:09:17.989Z,2.46
2023-04-08T17:11:44.404Z,2.08
2023-04-08T17:14:10.816Z,1.99
2023-04-08T17:16:37.254Z,1.93
2023-04-08T17:19:03.630Z,1.88
2023-04-08T17:21:30.026Z,1.94
2023-04-08T17:23:56.408Z,1.99
2023-04-08T17:26:22.764Z,2.22
2023-04-08T17:28:49.155Z,2.23
2023-04-08T17:31:15.549Z,2.14
2023-04-08T17:33:41.961Z,2.05
2023-04-08T17:36:08.407Z,1.88
2023-04-08T17:38:34.872Z,2.02
2023-04-08T17:41:01.250Z,2.14
2023-04-08T17:43:27.585Z,2.08
2023-04-08T17:45:53.995Z,2.09
2023-04-08T17:48:20.448Z,2.02
2023-04-08T17:50:46.794Z,2.25
2023-04-08T17:53:13.172Z,2.50
2023-04-08T17:55:39.524Z,2.40
2023-04-08T17:58:05.871Z,2.20
2023-04-08T18:00:32.224Z,2.48
2023-04-08T18:02:58.759Z,2.62
2023-04-08T18:05:25.283Z,2.97
2023-04-08T18:07:51.681Z,2.87
2023-04-08T18:10:18.081Z,2.94
2023-04-08T18:12:44.466Z,2.96
2023-04-08T18:15:10.852Z,2.99
2023-04-08T18:17:37.223Z,2.86
2023-04-08T18:20:03.608Z,3.22
2023-04-08T18:22:30.011Z,3.35
2023-04-08T18:24:56.366Z,3.51
2023-04-08T18:27:22.753Z,3.53
2023-04-08T18:29:49.115Z,3.58
2023-04-08T18:32:15.498Z,3.79
2023-04-08T18:34:41.845Z,3.69
2023-04-08T18:37:08.220Z,3.52
2023-04-08T18:39:34.562Z,3.12
2023-04-08T18:42:00.929Z,3.93
2023-04-08T18:44:27.281Z,3.98
2023-04-08T18:46:54.210Z,4.16
2023-04-08T18:49:20.576Z,3.52
2023-04-08T18:51:58.940Z,3.85
2023-04-08T18:54:28.616Z,4.06
2023-04-08T18:56:54.983Z,6.06
2023-04-08T18:59:21.475Z,4.14
2023-04-08T19:01:48.177Z,3.95
2023-04-08T19:04:14.613Z,3.80
2023-04-08T19:06:41.095Z,3.90
2023-04-08T19:09:07.556Z,4.18
2023-04-08T19:11:33.953Z,4.74
2023-04-08T19:14:00.347Z,4.14
2023-04-08T19:16:27.906Z,4.10
2023-04-08T19:18:54.358Z,4.13
2023-04-08T19:21:20.721Z,4.06
2023-04-08T19:23:47.232Z,4.07
2023-04-08T19:26:13.609Z,4.16
2023-04-08T19:28:39.969Z,4.20
2023-04-08T19:31:06.348Z,4.27
2023-04-08T19:33:32.741Z,4.32
2023-04-08T19:35:59.154Z,4.09
2023-04-08T19:38:25.591Z,4.50
2023-04-08T19:40:51.943Z,4.41
2023-04-08T19:43:18.320Z,4.45
2023-04-08T19:45:44.950Z,4.50
2023-04-08T19:48:11.371Z,4.51
2023-04-08T19:50:37.771Z,4.66
2023-04-08T19:53:04.159Z,4.62
2023-04-08T19:55:30.697Z,4.73
2023-04-08T19:57:57.032Z,4.88
2023-04-08T20:00:23.414Z,4.68
2023-04-08T20:02:49.933Z,4.50
2023-04-08T20:05:16.430Z,4.74
2023-04-08T20:07:42.784Z,4.68
2023-04-08T20:10:09.690Z,4.66
2023-04-08T20:12:36.316Z,4.56
2023-04-08T20:15:02.738Z,4.80
2023-04-08T20:17:29.202Z,5.02
2023-04-08T20:19:55.635Z,4.96
2023-04-08T20:22:22.048Z,5.16
2023-04-08T20:24:48.486Z,5.52
2023-04-08T20:27:14.823Z,5.24
2023-04-08T20:29:41.160Z,5.42
2023-04-08T20:32:07.496Z,5.72
2023-04-08T20:34:34.004Z,5.68
2023-04-08T20:37:00.598Z,5.95
2023-04-08T20:39:26.986Z,5.88
2023-04-08T20:41:53.322Z,5.88
2023-04-08T20:44:19.656Z,6.07
2023-04-08T20:46:47.027Z,5.98
2023-04-08T20:49:14.286Z,6.59
2023-04-08T20:51:40.674Z,6.44
2023-04-08T20:54:07.072Z,6.18
2023-04-08T20:56:33.471Z,6.44
2023-04-08T20:59:00.403Z,6.15
2023-04-08T21:01:27.070Z,6.67
2023-04-08T21:03:53.587Z,7.01
2023-04-08T21:06:19.965Z,7.10
2023-04-08T21:08:46.339Z,7.09
2023-04-08T21:11:12.717Z,6.92
2023-04-08T21:13:39.106Z,7.12
2023-04-08T21:16:05.522Z,7.35
2023-04-08T21:18:31.926Z,6.97
2023-04-08T21:20:58.270Z,7.33
2023-04-08T21:23:24.601Z,7.48
2023-04-08T21:25:50.939Z,7.29
2023-04-08T21:28:17.277Z,7.50
2023-04-08T21:30:43.658Z,7.33
2023-04-08T21:33:10.067Z,7.53
2023-04-08T21:35:36.479Z,7.57
2023-04-08T21:38:02.885Z,7.70
2023-04-08T21:40:29.227Z,7.79
2023-04-08T21:42:55.604Z,7.81
2023-04-08T21:45:22.001Z,7.65
2023-04-08T21:47:48.462Z,7.73
2023-04-08T21:50:14.838Z,7.82
2023-04-08T21:52:43.958Z,7.79
2023-04-08T21:55:10.477Z,7.83
2023-04-08T21:57:36.862Z,8.37
2023-04-08T22:00:03.244Z,7.95
2023-04-08T22:02:29.722Z,8.14
2023-04-08T22:04:56.164Z,7.77
2023-04-08T22:07:22.524Z,8.10
2023-04-08T22:09:48.885Z,7.79
2023-04-08T22:12:15.282Z,8.20
2023-04-08T22:14:41.670Z,8.21
2023-04-08T22:17:08.191Z,8.56
2023-04-08T22:19:34.654Z,8.53
2023-04-08T22:22:01.060Z,8.34
2023-04-08T22:24:27.411Z,8.26
2023-04-08T22:26:53.815Z,8.29
2023-04-08T22:29:20.179Z,8.52
2023-04-08T22:31:46.529Z,8.38
2023-04-08T22:34:12.893Z,8.55
2023-04-08T22:36:39.231Z,8.48
2023-04-08T22:39:05.568Z,8.70
2023-04-08T22:41:31.946Z,8.64
2023-04-08T22:43:58.305Z,8.80
2023-04-08T22:46:24.671Z,8.36
2023-04-08T22:48:51.298Z,8.48
2023-04-08T22:51:17.867Z,8.94
2023-04-08T22:53:44.210Z,8.75
2023-04-08T22:56:10.556Z,8.46
2023-04-08T22:58:36.986Z,8.87
2023-04-08T23:01:03.343Z,9.10
2023-04-08T23:03:29.824Z,8.66
2023-04-08T23:05:56.174Z,8.61
2023-04-08T23:08:22.516Z,8.82
2023-04-08T23:10:48.902Z,8.73
2023-04-08T23:13:15.295Z,8.89
2023-04-08T23:15:41.762Z,8.54
2023-04-08T23:18:08.126Z,8.95
2023-04-08T23:20:34.504Z,9.15
2023-04-08T23:23:00.893Z,8.79
2023-04-08T23:25:27.281Z,8.55
2023-04-08T23:27:53.639Z,8.98
2023-04-08T23:30:20.017Z,8.55
2023-04-08T23:32:46.401Z,8.28
2023-04-08T23:35:12.797Z,8.33
2023-04-08T23:37:39.194Z,8.43
2023-04-08T23:40:05.542Z,8.57
2023-04-08T23:42:31.931Z,8.70
2023-04-08T23:44:58.293Z,8.42
2023-04-08T23:47:24.679Z,8.86
2023-04-08T23:49:51.062Z,9.26
2023-04-08T23:52:17.410Z,9.20
2023-04-08T23:54:43.741Z,9.15
2023-04-08T23:57:10.126Z,9.31
2023-04-08T23:59:36.490Z,9.64
